sensor_id;sensor_type;location;lat;lon;timestamp;P1;durP1;ratioP1;P2;durP2;ratioP2
56712;SDS011;42589;45.536;9.032;2023-01-16T00:01:11;120.13;;;84.35;;
56712;SDS011;42589;45.536;9.032;2023-01-16T00:04:13;116.20;;;79.70;;
56712;SDS011;42589;45.536;9.032;2023-01-16T00:07:14;118.53;;;82.10;;
56712;SDS011;42589;45.536;9.032;2023-01-16T00:10:16;120.35;;;82.53;;
56712;SDS011;42589;45.536;9.032;2023-01-16T00:13:17;113.80;;;79.47;;
56712;SDS011;42589;45.536;9.032;2023-01-16T00:16:21;109.72;;;77.38;;
56712;SDS011;42589;45.536;9.032;2023-01-16T00:19:23;116.95;;;77.28;;
56712;SDS011;42589;45.536;9.032;2023-01-16T00:22:24;113.15;;;77.40;;
56712;SDS011;42589;45.536;9.032;2023-01-16T00:25:27;112.30;;;74.68;;
56712;SDS011;42589;45.536;9.032;2023-01-16T00:28:28;116.93;;;81.32;;
56712;SDS011;42589;45.536;9.032;2023-01-16T00:31:30;116.68;;;79.93;;
56712;SDS011;42589;45.536;9.032;2023-01-16T00:34:31;117.90;;;81.32;;
56712;SDS011;42589;45.536;9.032;2023-01-16T00:37:32;122.05;;;84.03;;
56712;SDS011;42589;45.536;9.032;2023-01-16T00:40:33;116.40;;;82.57;;
56712;SDS011;42589;45.536;9.032;2023-01-16T00:43:34;121.80;;;84.40;;
56712;SDS011;42589;45.536;9.032;2023-01-16T00:46:37;118.68;;;81.78;;
56712;SDS011;42589;45.536;9.032;2023-01-16T00:49:40;119.55;;;80.45;;
56712;SDS011;42589;45.536;9.032;2023-01-16T00:52:42;115.22;;;78.53;;
56712;SDS011;42589;45.536;9.032;2023-01-16T00:55:43;115.93;;;80.00;;
56712;SDS011;42589;45.536;9.032;2023-01-16T00:58:44;117.03;;;82.60;;
56712;SDS011;42589;45.536;9.032;2023-01-16T01:01:46;121.72;;;83.22;;
56712;SDS011;42589;45.536;9.032;2023-01-16T01:04:46;122.47;;;85.53;;
56712;SDS011;42589;45.536;9.032;2023-01-16T01:07:47;121.68;;;84.43;;
56712;SDS011;42589;45.536;9.032;2023-01-16T01:11:08;128.20;;;84.35;;
56712;SDS011;42589;45.536;9.032;2023-01-16T01:14:11;122.13;;;83.20;;
56712;SDS011;42589;45.536;9.032;2023-01-16T01:17:12;124.10;;;84.97;;
56712;SDS011;42589;45.536;9.032;2023-01-16T01:20:13;123.82;;;85.50;;
56712;SDS011;42589;45.536;9.032;2023-01-16T01:23:13;125.43;;;84.50;;
56712;SDS011;42589;45.536;9.032;2023-01-16T01:26:16;123.15;;;82.25;;
56712;SDS011;42589;45.536;9.032;2023-01-16T01:29:17;124.10;;;81.10;;
56712;SDS011;42589;45.536;9.032;2023-01-16T01:32:18;121.40;;;79.70;;
56712;SDS011;42589;45.536;9.032;2023-01-16T01:35:18;118.75;;;80.60;;
56712;SDS011;42589;45.536;9.032;2023-01-16T01:38:20;118.35;;;79.80;;
56712;SDS011;42589;45.536;9.032;2023-01-16T01:41:21;130.27;;;83.90;;
56712;SDS011;42589;45.536;9.032;2023-01-16T01:44:44;131.63;;;85.13;;
56712;SDS011;42589;45.536;9.032;2023-01-16T01:51:17;132.05;;;82.90;;
56712;SDS011;42589;45.536;9.032;2023-01-16T01:54:38;126.60;;;81.97;;
56712;SDS011;42589;45.536;9.032;2023-01-16T01:57:45;119.72;;;80.88;;
56712;SDS011;42589;45.536;9.032;2023-01-16T02:00:51;121.70;;;81.80;;
56712;SDS011;42589;45.536;9.032;2023-01-16T02:04:00;125.40;;;77.90;;
56712;SDS011;42589;45.536;9.032;2023-01-16T02:07:06;125.18;;;78.70;;
56712;SDS011;42589;45.536;9.032;2023-01-16T02:13:27;133.43;;;80.35;;
56712;SDS011;42589;45.536;9.032;2023-01-16T02:16:29;130.77;;;79.95;;
56712;SDS011;42589;45.536;9.032;2023-01-16T02:19:50;128.68;;;79.22;;
56712;SDS011;42589;45.536;9.032;2023-01-16T02:33:23;121.78;;;82.45;;
56712;SDS011;42589;45.536;9.032;2023-01-16T02:46:32;130.57;;;78.90;;
56712;SDS011;42589;45.536;9.032;2023-01-16T02:49:49;124.95;;;77.82;;
56712;SDS011;42589;45.536;9.032;2023-01-16T02:56:22;128.02;;;81.80;;
56712;SDS011;42589;45.536;9.032;2023-01-16T02:59:27;136.15;;;86.10;;
56712;SDS011;42589;45.536;9.032;2023-01-16T03:02:29;134.77;;;84.68;;
56712;SDS011;42589;45.536;9.032;2023-01-16T03:05:37;132.50;;;87.43;;
56712;SDS011;42589;45.536;9.032;2023-01-16T03:12:18;131.20;;;86.25;;
56712;SDS011;42589;45.536;9.032;2023-01-16T03:31:50;146.57;;;90.40;;
56712;SDS011;42589;45.536;9.032;2023-01-16T03:38:04;158.73;;;94.88;;
56712;SDS011;42589;45.536;9.032;2023-01-16T03:41:08;161.27;;;95.90;;
56712;SDS011;42589;45.536;9.032;2023-01-16T03:44:14;154.75;;;94.00;;
56712;SDS011;42589;45.536;9.032;2023-01-16T03:47:26;157.88;;;92.10;;
56712;SDS011;42589;45.536;9.032;2023-01-16T03:50:38;154.05;;;91.68;;
56712;SDS011;42589;45.536;9.032;2023-01-16T03:53:46;164.10;;;93.32;;
56712;SDS011;42589;45.536;9.032;2023-01-16T04:00:23;174.73;;;96.22;;
56712;SDS011;42589;45.536;9.032;2023-01-16T04:03:36;181.88;;;101.03;;
56712;SDS011;42589;45.536;9.032;2023-01-16T04:06:44;206.80;;;109.10;;
56712;SDS011;42589;45.536;9.032;2023-01-16T04:09:53;211.95;;;107.50;;
56712;SDS011;42589;45.536;9.032;2023-01-16T04:13:09;185.90;;;103.43;;
56712;SDS011;42589;45.536;9.032;2023-01-16T04:16:14;179.13;;;102.20;;
56712;SDS011;42589;45.536;9.032;2023-01-16T04:19:18;159.87;;;95.63;;
56712;SDS011;42589;45.536;9.032;2023-01-16T04:22:23;152.98;;;90.53;;
56712;SDS011;42589;45.536;9.032;2023-01-16T04:25:26;144.98;;;86.53;;
56712;SDS011;42589;45.536;9.032;2023-01-16T04:28:27;135.05;;;79.38;;
56712;SDS011;42589;45.536;9.032;2023-01-16T04:31:28;125.53;;;79.65;;
56712;SDS011;42589;45.536;9.032;2023-01-16T04:34:31;129.95;;;78.40;;
56712;SDS011;42589;45.536;9.032;2023-01-16T04:40:34;123.57;;;76.10;;
56712;SDS011;42589;45.536;9.032;2023-01-16T04:43:46;131.25;;;80.43;;
56712;SDS011;42589;45.536;9.032;2023-01-16T04:46:47;125.75;;;78.15;;
56712;SDS011;42589;45.536;9.032;2023-01-16T04:49:47;125.25;;;77.72;;
56712;SDS011;42589;45.536;9.032;2023-01-16T04:52:49;128.68;;;79.35;;
56712;SDS011;42589;45.536;9.032;2023-01-16T04:55:52;125.28;;;79.43;;
56712;SDS011;42589;45.536;9.032;2023-01-16T04:58:53;130.05;;;81.50;;
56712;SDS011;42589;45.536;9.032;2023-01-16T05:01:54;132.98;;;80.35;;
56712;SDS011;42589;45.536;9.032;2023-01-16T05:04:54;137.55;;;82.05;;
56712;SDS011;42589;45.536;9.032;2023-01-16T05:07:55;139.00;;;83.38;;
56712;SDS011;42589;45.536;9.032;2023-01-16T05:11:15;135.65;;;84.00;;
56712;SDS011;42589;45.536;9.032;2023-01-16T05:14:17;140.50;;;83.00;;
56712;SDS011;42589;45.536;9.032;2023-01-16T05:17:17;138.80;;;83.85;;
56712;SDS011;42589;45.536;9.032;2023-01-16T05:20:22;130.85;;;81.95;;
56712;SDS011;42589;45.536;9.032;2023-01-16T05:23:24;132.93;;;79.88;;
56712;SDS011;42589;45.536;9.032;2023-01-16T05:26:25;131.75;;;81.63;;
56712;SDS011;42589;45.536;9.032;2023-01-16T05:29:26;137.32;;;79.38;;
56712;SDS011;42589;45.536;9.032;2023-01-16T05:32:27;132.82;;;77.38;;
56712;SDS011;42589;45.536;9.032;2023-01-16T05:35:28;132.40;;;78.82;;
56712;SDS011;42589;45.536;9.032;2023-01-16T05:38:30;130.02;;;78.35;;
56712;SDS011;42589;45.536;9.032;2023-01-16T05:41:31;130.23;;;76.05;;
56712;SDS011;42589;45.536;9.032;2023-01-16T05:44:31;126.30;;;75.88;;
56712;SDS011;42589;45.536;9.032;2023-01-16T05:47:32;131.50;;;75.90;;
56712;SDS011;42589;45.536;9.032;2023-01-16T05:50:33;129.05;;;74.40;;
56712;SDS011;42589;45.536;9.032;2023-01-16T05:53:35;123.68;;;72.28;;
56712;SDS011;42589;45.536;9.032;2023-01-16T05:56:36;122.05;;;72.00;;
56712;SDS011;42589;45.536;9.032;2023-01-16T05:59:37;122.93;;;73.90;;
56712;SDS011;42589;45.536;9.032;2023-01-16T06:02:38;123.28;;;72.95;;
56712;SDS011;42589;45.536;9.032;2023-01-16T06:05:39;118.60;;;70.20;;
56712;SDS011;42589;45.536;9.032;2023-01-16T06:08:40;116.70;;;70.85;;
56712;SDS011;42589;45.536;9.032;2023-01-16T06:11:42;114.43;;;69.75;;
56712;SDS011;42589;45.536;9.032;2023-01-16T06:14:43;113.13;;;64.85;;
56712;SDS011;42589;45.536;9.032;2023-01-16T06:17:47;115.45;;;66.50;;
56712;SDS011;42589;45.536;9.032;2023-01-16T06:20:50;106.55;;;65.70;;
56712;SDS011;42589;45.536;9.032;2023-01-16T06:23:54;105.00;;;59.72;;
56712;SDS011;42589;45.536;9.032;2023-01-16T06:26:55;112.38;;;64.72;;
56712;SDS011;42589;45.536;9.032;2023-01-16T06:29:56;108.25;;;64.82;;
56712;SDS011;42589;45.536;9.032;2023-01-16T06:32:57;110.90;;;64.43;;
56712;SDS011;42589;45.536;9.032;2023-01-16T06:35:58;109.32;;;62.35;;
56712;SDS011;42589;45.536;9.032;2023-01-16T06:38:59;109.22;;;63.10;;
56712;SDS011;42589;45.536;9.032;2023-01-16T06:42:00;115.57;;;61.13;;
56712;SDS011;42589;45.536;9.032;2023-01-16T06:45:03;109.93;;;64.85;;
56712;SDS011;42589;45.536;9.032;2023-01-16T06:48:04;107.25;;;62.92;;
56712;SDS011;42589;45.536;9.032;2023-01-16T06:51:07;111.53;;;66.30;;
56712;SDS011;42589;45.536;9.032;2023-01-16T06:54:09;113.13;;;64.00;;
56712;SDS011;42589;45.536;9.032;2023-01-16T06:57:11;105.97;;;60.90;;
56712;SDS011;42589;45.536;9.032;2023-01-16T07:00:14;104.88;;;58.17;;
56712;SDS011;42589;45.536;9.032;2023-01-16T07:03:15;98.65;;;58.20;;
56712;SDS011;42589;45.536;9.032;2023-01-16T07:06:17;100.80;;;60.67;;
56712;SDS011;42589;45.536;9.032;2023-01-16T07:09:17;102.00;;;56.80;;
56712;SDS011;42589;45.536;9.032;2023-01-16T07:12:18;102.95;;;58.58;;
56712;SDS011;42589;45.536;9.032;2023-01-16T07:15:22;100.60;;;57.45;;
56712;SDS011;42589;45.536;9.032;2023-01-16T07:18:41;105.45;;;58.13;;
56712;SDS011;42589;45.536;9.032;2023-01-16T07:21:50;98.95;;;58.85;;
56712;SDS011;42589;45.536;9.032;2023-01-16T07:25:14;103.05;;;58.42;;
56712;SDS011;42589;45.536;9.032;2023-01-16T07:28:17;102.00;;;55.20;;
56712;SDS011;42589;45.536;9.032;2023-01-16T07:31:18;96.88;;;56.03;;
56712;SDS011;42589;45.536;9.032;2023-01-16T07:34:20;99.60;;;57.13;;
56712;SDS011;42589;45.536;9.032;2023-01-16T07:37:22;102.15;;;55.70;;
56712;SDS011;42589;45.536;9.032;2023-01-16T07:40:26;95.38;;;53.95;;
56712;SDS011;42589;45.536;9.032;2023-01-16T07:43:27;95.57;;;55.58;;
56712;SDS011;42589;45.536;9.032;2023-01-16T07:46:28;100.47;;;55.58;;
56712;SDS011;42589;45.536;9.032;2023-01-16T07:49:29;95.28;;;52.97;;
56712;SDS011;42589;45.536;9.032;2023-01-16T07:52:29;96.63;;;54.03;;
56712;SDS011;42589;45.536;9.032;2023-01-16T07:55:31;92.03;;;53.35;;
56712;SDS011;42589;45.536;9.032;2023-01-16T07:58:32;92.80;;;54.10;;
56712;SDS011;42589;45.536;9.032;2023-01-16T08:01:33;93.60;;;52.13;;
56712;SDS011;42589;45.536;9.032;2023-01-16T08:04:34;91.93;;;51.83;;
56712;SDS011;42589;45.536;9.032;2023-01-16T08:07:35;90.45;;;52.47;;
56712;SDS011;42589;45.536;9.032;2023-01-16T08:10:37;84.35;;;50.53;;
56712;SDS011;42589;45.536;9.032;2023-01-16T08:13:38;84.95;;;47.53;;
56712;SDS011;42589;45.536;9.032;2023-01-16T08:16:40;83.75;;;48.67;;
56712;SDS011;42589;45.536;9.032;2023-01-16T08:19:41;87.18;;;48.28;;
56712;SDS011;42589;45.536;9.032;2023-01-16T08:22:43;84.18;;;48.88;;
56712;SDS011;42589;45.536;9.032;2023-01-16T08:25:48;81.57;;;49.05;;
56712;SDS011;42589;45.536;9.032;2023-01-16T08:28:50;86.45;;;51.95;;
56712;SDS011;42589;45.536;9.032;2023-01-16T08:31:52;79.82;;;46.58;;
56712;SDS011;42589;45.536;9.032;2023-01-16T08:34:53;74.57;;;46.50;;
56712;SDS011;42589;45.536;9.032;2023-01-16T08:37:54;78.15;;;46.10;;
56712;SDS011;42589;45.536;9.032;2023-01-16T08:40:55;77.20;;;47.17;;
56712;SDS011;42589;45.536;9.032;2023-01-16T08:43:56;73.63;;;44.85;;
56712;SDS011;42589;45.536;9.032;2023-01-16T08:47:20;75.78;;;44.60;;
56712;SDS011;42589;45.536;9.032;2023-01-16T08:50:42;77.03;;;45.40;;
56712;SDS011;42589;45.536;9.032;2023-01-16T08:54:02;75.90;;;44.42;;
56712;SDS011;42589;45.536;9.032;2023-01-16T08:57:04;82.20;;;44.22;;
56712;SDS011;42589;45.536;9.032;2023-01-16T09:00:05;65.15;;;42.03;;
56712;SDS011;42589;45.536;9.032;2023-01-16T09:03:07;68.72;;;42.75;;
56712;SDS011;42589;45.536;9.032;2023-01-16T09:06:08;62.03;;;40.78;;
56712;SDS011;42589;45.536;9.032;2023-01-16T09:09:12;63.85;;;41.40;;
56712;SDS011;42589;45.536;9.032;2023-01-16T09:28:01;65.80;;;40.25;;
56712;SDS011;42589;45.536;9.032;2023-01-16T09:32:05;62.28;;;41.10;;
56712;SDS011;42589;45.536;9.032;2023-01-16T09:35:30;63.50;;;39.70;;
56712;SDS011;42589;45.536;9.032;2023-01-16T09:38:36;61.80;;;41.33;;
56712;SDS011;42589;45.536;9.032;2023-01-16T09:41:50;63.92;;;41.30;;
56712;SDS011;42589;45.536;9.032;2023-01-16T09:45:18;62.30;;;41.92;;
56712;SDS011;42589;45.536;9.032;2023-01-16T09:48:25;70.03;;;43.58;;
56712;SDS011;42589;45.536;9.032;2023-01-16T09:51:45;66.78;;;41.95;;
56712;SDS011;42589;45.536;9.032;2023-01-16T09:54:46;66.80;;;42.75;;
56712;SDS011;42589;45.536;9.032;2023-01-16T09:58:13;64.65;;;43.10;;
56712;SDS011;42589;45.536;9.032;2023-01-16T10:01:36;66.03;;;46.05;;
56712;SDS011;42589;45.536;9.032;2023-01-16T10:04:43;77.60;;;49.97;;
56712;SDS011;42589;45.536;9.032;2023-01-16T10:11:21;73.20;;;49.80;;
56712;SDS011;42589;45.536;9.032;2023-01-16T10:18:07;66.35;;;46.00;;
56712;SDS011;42589;45.536;9.032;2023-01-16T10:31:36;61.95;;;43.15;;
56712;SDS011;42589;45.536;9.032;2023-01-16T10:34:46;56.58;;;40.17;;
56712;SDS011;42589;45.536;9.032;2023-01-16T10:37:55;54.53;;;39.17;;
56712;SDS011;42589;45.536;9.032;2023-01-16T10:41:02;56.80;;;40.15;;
56712;SDS011;42589;45.536;9.032;2023-01-16T10:47:42;61.17;;;41.53;;
56712;SDS011;42589;45.536;9.032;2023-01-16T10:51:01;62.95;;;43.53;;
56712;SDS011;42589;45.536;9.032;2023-01-16T10:54:03;72.25;;;47.95;;
56712;SDS011;42589;45.536;9.032;2023-01-16T10:57:22;67.80;;;46.85;;
56712;SDS011;42589;45.536;9.032;2023-01-16T11:00:24;61.80;;;41.80;;
56712;SDS011;42589;45.536;9.032;2023-01-16T11:03:35;57.38;;;42.03;;
56712;SDS011;42589;45.536;9.032;2023-01-16T11:06:39;57.17;;;40.60;;
56712;SDS011;42589;45.536;9.032;2023-01-16T11:09:42;55.47;;;39.92;;
56712;SDS011;42589;45.536;9.032;2023-01-16T11:12:44;55.70;;;40.28;;
56712;SDS011;42589;45.536;9.032;2023-01-16T11:16:05;59.97;;;42.08;;
56712;SDS011;42589;45.536;9.032;2023-01-16T11:19:25;59.28;;;40.80;;
56712;SDS011;42589;45.536;9.032;2023-01-16T11:22:28;62.97;;;43.25;;
56712;SDS011;42589;45.536;9.032;2023-01-16T11:25:29;64.93;;;44.28;;
56712;SDS011;42589;45.536;9.032;2023-01-16T11:28:31;61.85;;;42.15;;
56712;SDS011;42589;45.536;9.032;2023-01-16T11:31:33;64.93;;;44.72;;
56712;SDS011;42589;45.536;9.032;2023-01-16T11:34:34;66.80;;;44.40;;
56712;SDS011;42589;45.536;9.032;2023-01-16T11:37:39;75.20;;;45.95;;
56712;SDS011;42589;45.536;9.032;2023-01-16T11:40:46;73.60;;;45.72;;
56712;SDS011;42589;45.536;9.032;2023-01-16T11:47:39;69.60;;;46.20;;
56712;SDS011;42589;45.536;9.032;2023-01-16T11:50:41;78.38;;;46.22;;
56712;SDS011;42589;45.536;9.032;2023-01-16T11:53:49;75.38;;;47.60;;
56712;SDS011;42589;45.536;9.032;2023-01-16T11:57:36;75.70;;;46.40;;
56712;SDS011;42589;45.536;9.032;2023-01-16T12:06:44;73.53;;;44.28;;
56712;SDS011;42589;45.536;9.032;2023-01-16T12:09:59;82.63;;;46.38;;
56712;SDS011;42589;45.536;9.032;2023-01-16T12:13:16;83.82;;;46.60;;
56712;SDS011;42589;45.536;9.032;2023-01-16T12:23:49;85.38;;;47.20;;
56712;SDS011;42589;45.536;9.032;2023-01-16T12:30:18;82.38;;;47.80;;
56712;SDS011;42589;45.536;9.032;2023-01-16T12:33:40;85.13;;;46.78;;
56712;SDS011;42589;45.536;9.032;2023-01-16T12:40:26;79.38;;;44.05;;
56712;SDS011;42589;45.536;9.032;2023-01-16T12:43:57;79.47;;;43.28;;
56712;SDS011;42589;45.536;9.032;2023-01-16T12:50:18;63.55;;;36.97;;
56712;SDS011;42589;45.536;9.032;2023-01-16T13:03:31;47.17;;;29.83;;
56712;SDS011;42589;45.536;9.032;2023-01-16T13:06:40;58.53;;;34.75;;
56712;SDS011;42589;45.536;9.032;2023-01-16T13:13:33;52.05;;;32.88;;
56712;SDS011;42589;45.536;9.032;2023-01-16T13:16:42;68.20;;;38.00;;
56712;SDS011;42589;45.536;9.032;2023-01-16T13:19:49;65.03;;;39.08;;
56712;SDS011;42589;45.536;9.032;2023-01-16T13:22:57;64.38;;;37.67;;
56712;SDS011;42589;45.536;9.032;2023-01-16T13:26:11;62.50;;;37.85;;
56712;SDS011;42589;45.536;9.032;2023-01-16T13:32:50;63.22;;;39.20;;
56712;SDS011;42589;45.536;9.032;2023-01-16T13:42:28;59.53;;;37.70;;
56712;SDS011;42589;45.536;9.032;2023-01-16T13:45:31;63.72;;;35.67;;
56712;SDS011;42589;45.536;9.032;2023-01-16T13:48:49;55.33;;;33.67;;
56712;SDS011;42589;45.536;9.032;2023-01-16T13:51:53;56.00;;;34.58;;
56712;SDS011;42589;45.536;9.032;2023-01-16T13:54:56;52.85;;;32.72;;
56712;SDS011;42589;45.536;9.032;2023-01-16T14:01:34;52.85;;;34.10;;
56712;SDS011;42589;45.536;9.032;2023-01-16T14:04:35;54.38;;;33.75;;
56712;SDS011;42589;45.536;9.032;2023-01-16T14:11:28;60.42;;;36.35;;
56712;SDS011;42589;45.536;9.032;2023-01-16T14:14:46;56.95;;;35.60;;
56712;SDS011;42589;45.536;9.032;2023-01-16T14:18:22;46.97;;;31.33;;
56712;SDS011;42589;45.536;9.032;2023-01-16T14:21:43;42.20;;;29.42;;
56712;SDS011;42589;45.536;9.032;2023-01-16T14:25:18;43.25;;;29.48;;
56712;SDS011;42589;45.536;9.032;2023-01-16T14:28:21;38.42;;;26.35;;
56712;SDS011;42589;45.536;9.032;2023-01-16T14:31:26;34.10;;;24.88;;
56712;SDS011;42589;45.536;9.032;2023-01-16T14:38:29;32.38;;;23.85;;
56712;SDS011;42589;45.536;9.032;2023-01-16T14:41:33;32.80;;;23.33;;
56712;SDS011;42589;45.536;9.032;2023-01-16T14:44:59;32.80;;;25.08;;
56712;SDS011;42589;45.536;9.032;2023-01-16T14:48:43;31.92;;;24.13;;
56712;SDS011;42589;45.536;9.032;2023-01-16T14:52:07;35.00;;;25.48;;
56712;SDS011;42589;45.536;9.032;2023-01-16T14:58:45;35.85;;;25.45;;
56712;SDS011;42589;45.536;9.032;2023-01-16T15:01:59;34.60;;;26.30;;
56712;SDS011;42589;45.536;9.032;2023-01-16T15:05:20;35.13;;;24.10;;
56712;SDS011;42589;45.536;9.032;2023-01-16T15:11:57;38.33;;;26.17;;
56712;SDS011;42589;45.536;9.032;2023-01-16T15:15:02;39.55;;;26.92;;
56712;SDS011;42589;45.536;9.032;2023-01-16T15:18:04;38.72;;;27.23;;
56712;SDS011;42589;45.536;9.032;2023-01-16T15:21:23;42.05;;;27.58;;
56712;SDS011;42589;45.536;9.032;2023-01-16T15:24:43;36.85;;;24.83;;
56712;SDS011;42589;45.536;9.032;2023-01-16T15:28:16;19.60;;;14.43;;
56712;SDS011;42589;45.536;9.032;2023-01-16T15:31:20;21.85;;;16.40;;
56712;SDS011;42589;45.536;9.032;2023-01-16T15:34:23;19.38;;;14.95;;
56712;SDS011;42589;45.536;9.032;2023-01-16T15:37:25;22.40;;;15.52;;
56712;SDS011;42589;45.536;9.032;2023-01-16T15:40:29;18.92;;;13.80;;
56712;SDS011;42589;45.536;9.032;2023-01-16T15:43:31;20.73;;;14.95;;
56712;SDS011;42589;45.536;9.032;2023-01-16T15:46:59;18.90;;;12.68;;
56712;SDS011;42589;45.536;9.032;2023-01-16T15:53:24;17.80;;;12.27;;
56712;SDS011;42589;45.536;9.032;2023-01-16T15:56:35;14.98;;;12.23;;
56712;SDS011;42589;45.536;9.032;2023-01-16T15:59:49;16.20;;;13.07;;
56712;SDS011;42589;45.536;9.032;2023-01-16T16:02:55;18.25;;;13.40;;
56712;SDS011;42589;45.536;9.032;2023-01-16T16:06:02;16.30;;;12.45;;
56712;SDS011;42589;45.536;9.032;2023-01-16T16:09:06;15.30;;;11.63;;
56712;SDS011;42589;45.536;9.032;2023-01-16T16:12:14;16.33;;;12.57;;
56712;SDS011;42589;45.536;9.032;2023-01-16T16:18:39;15.23;;;11.95;;
56712;SDS011;42589;45.536;9.032;2023-01-16T16:21:52;15.32;;;12.10;;
56712;SDS011;42589;45.536;9.032;2023-01-16T16:25:23;13.90;;;11.30;;
56712;SDS011;42589;45.536;9.032;2023-01-16T16:31:33;15.05;;;11.25;;
56712;SDS011;42589;45.536;9.032;2023-01-16T16:34:36;15.18;;;11.50;;
56712;SDS011;42589;45.536;9.032;2023-01-16T16:37:41;14.30;;;11.93;;
56712;SDS011;42589;45.536;9.032;2023-01-16T16:40:46;15.43;;;12.98;;
56712;SDS011;42589;45.536;9.032;2023-01-16T16:44:22;15.57;;;11.90;;
56712;SDS011;42589;45.536;9.032;2023-01-16T16:47:28;16.02;;;12.07;;
56712;SDS011;42589;45.536;9.032;2023-01-16T16:50:32;12.40;;;11.10;;
56712;SDS011;42589;45.536;9.032;2023-01-16T16:53:35;16.73;;;13.05;;
56712;SDS011;42589;45.536;9.032;2023-01-16T16:56:41;19.40;;;14.93;;
56712;SDS011;42589;45.536;9.032;2023-01-16T17:00:03;16.90;;;12.57;;
56712;SDS011;42589;45.536;9.032;2023-01-16T17:03:11;15.80;;;13.02;;
56712;SDS011;42589;45.536;9.032;2023-01-16T17:06:21;17.10;;;13.35;;
56712;SDS011;42589;45.536;9.032;2023-01-16T17:09:27;17.33;;;13.20;;
56712;SDS011;42589;45.536;9.032;2023-01-16T17:12:31;17.30;;;13.18;;
56712;SDS011;42589;45.536;9.032;2023-01-16T17:15:32;16.55;;;12.25;;
56712;SDS011;42589;45.536;9.032;2023-01-16T17:18:34;13.02;;;10.80;;
56712;SDS011;42589;45.536;9.032;2023-01-16T17:21:35;14.63;;;11.60;;
56712;SDS011;42589;45.536;9.032;2023-01-16T17:24:37;15.15;;;12.18;;
56712;SDS011;42589;45.536;9.032;2023-01-16T17:27:39;14.35;;;12.10;;
56712;SDS011;42589;45.536;9.032;2023-01-16T17:30:41;14.95;;;12.00;;
56712;SDS011;42589;45.536;9.032;2023-01-16T17:33:42;16.48;;;13.25;;
56712;SDS011;42589;45.536;9.032;2023-01-16T17:36:42;16.77;;;11.82;;
56712;SDS011;42589;45.536;9.032;2023-01-16T17:39:43;16.30;;;11.95;;
56712;SDS011;42589;45.536;9.032;2023-01-16T17:42:44;14.32;;;11.88;;
56712;SDS011;42589;45.536;9.032;2023-01-16T17:46:14;14.30;;;11.65;;
56712;SDS011;42589;45.536;9.032;2023-01-16T17:49:16;16.30;;;12.45;;
56712;SDS011;42589;45.536;9.032;2023-01-16T17:52:18;14.52;;;12.20;;
56712;SDS011;42589;45.536;9.032;2023-01-16T17:55:19;14.40;;;12.32;;
56712;SDS011;42589;45.536;9.032;2023-01-16T17:58:38;17.05;;;12.82;;
56712;SDS011;42589;45.536;9.032;2023-01-16T18:01:45;14.73;;;11.80;;
56712;SDS011;42589;45.536;9.032;2023-01-16T18:04:47;16.15;;;12.35;;
56712;SDS011;42589;45.536;9.032;2023-01-16T18:07:50;15.00;;;12.10;;
56712;SDS011;42589;45.536;9.032;2023-01-16T18:10:51;17.42;;;13.50;;
56712;SDS011;42589;45.536;9.032;2023-01-16T18:13:52;16.88;;;13.75;;
56712;SDS011;42589;45.536;9.032;2023-01-16T18:17:13;18.15;;;13.75;;
56712;SDS011;42589;45.536;9.032;2023-01-16T18:20:21;16.35;;;13.75;;
56712;SDS011;42589;45.536;9.032;2023-01-16T18:23:22;18.73;;;14.73;;
56712;SDS011;42589;45.536;9.032;2023-01-16T18:26:24;17.77;;;14.35;;
56712;SDS011;42589;45.536;9.032;2023-01-16T18:29:25;17.65;;;14.52;;
56712;SDS011;42589;45.536;9.032;2023-01-16T18:32:27;18.80;;;15.10;;
56712;SDS011;42589;45.536;9.032;2023-01-16T18:35:28;19.10;;;15.43;;
56712;SDS011;42589;45.536;9.032;2023-01-16T18:38:32;22.13;;;15.60;;
56712;SDS011;42589;45.536;9.032;2023-01-16T18:41:51;18.75;;;14.70;;
56712;SDS011;42589;45.536;9.032;2023-01-16T18:45:12;18.05;;;14.93;;
56712;SDS011;42589;45.536;9.032;2023-01-16T18:48:32;20.60;;;14.95;;
56712;SDS011;42589;45.536;9.032;2023-01-16T18:51:52;18.38;;;13.30;;
56712;SDS011;42589;45.536;9.032;2023-01-16T18:55:12;16.38;;;13.20;;
56712;SDS011;42589;45.536;9.032;2023-01-16T18:58:32;16.35;;;12.80;;
56712;SDS011;42589;45.536;9.032;2023-01-16T19:01:51;18.20;;;14.05;;
56712;SDS011;42589;45.536;9.032;2023-01-16T19:04:55;18.40;;;15.07;;
56712;SDS011;42589;45.536;9.032;2023-01-16T19:07:58;17.42;;;12.98;;
56712;SDS011;42589;45.536;9.032;2023-01-16T19:11:02;17.55;;;13.05;;
56712;SDS011;42589;45.536;9.032;2023-01-16T19:14:03;16.75;;;12.40;;
56712;SDS011;42589;45.536;9.032;2023-01-16T19:17:04;14.18;;;12.25;;
56712;SDS011;42589;45.536;9.032;2023-01-16T19:20:05;15.70;;;12.27;;
56712;SDS011;42589;45.536;9.032;2023-01-16T19:23:10;14.00;;;11.80;;
56712;SDS011;42589;45.536;9.032;2023-01-16T19:26:11;12.93;;;11.52;;
56712;SDS011;42589;45.536;9.032;2023-01-16T19:29:13;13.15;;;11.10;;
56712;SDS011;42589;45.536;9.032;2023-01-16T19:32:16;15.80;;;12.48;;
56712;SDS011;42589;45.536;9.032;2023-01-16T19:35:16;14.32;;;11.35;;
56712;SDS011;42589;45.536;9.032;2023-01-16T19:38:17;14.60;;;11.20;;
56712;SDS011;42589;45.536;9.032;2023-01-16T19:41:18;13.82;;;11.35;;
56712;SDS011;42589;45.536;9.032;2023-01-16T19:44:38;14.23;;;11.60;;
56712;SDS011;42589;45.536;9.032;2023-01-16T19:47:58;16.05;;;13.20;;
56712;SDS011;42589;45.536;9.032;2023-01-16T19:51:01;17.08;;;13.52;;
56712;SDS011;42589;45.536;9.032;2023-01-16T19:54:02;17.73;;;13.75;;
56712;SDS011;42589;45.536;9.032;2023-01-16T19:57:06;20.08;;;14.43;;
56712;SDS011;42589;45.536;9.032;2023-01-16T20:00:07;21.13;;;15.73;;
56712;SDS011;42589;45.536;9.032;2023-01-16T20:03:08;22.10;;;15.50;;
56712;SDS011;42589;45.536;9.032;2023-01-16T20:06:09;24.15;;;16.17;;
56712;SDS011;42589;45.536;9.032;2023-01-16T20:09:11;22.23;;;15.93;;
56712;SDS011;42589;45.536;9.032;2023-01-16T20:12:13;25.38;;;16.52;;
56712;SDS011;42589;45.536;9.032;2023-01-16T20:15:23;24.85;;;16.20;;
56712;SDS011;42589;45.536;9.032;2023-01-16T20:18:25;25.77;;;17.73;;
56712;SDS011;42589;45.536;9.032;2023-01-16T20:21:25;24.17;;;18.15;;
56712;SDS011;42589;45.536;9.032;2023-01-16T20:24:27;29.33;;;18.83;;
56712;SDS011;42589;45.536;9.032;2023-01-16T20:27:29;27.40;;;19.73;;
56712;SDS011;42589;45.536;9.032;2023-01-16T20:30:30;29.85;;;20.67;;
56712;SDS011;42589;45.536;9.032;2023-01-16T20:33:47;30.30;;;21.08;;
56712;SDS011;42589;45.536;9.032;2023-01-16T20:36:52;32.55;;;21.10;;
56712;SDS011;42589;45.536;9.032;2023-01-16T20:39:53;29.08;;;20.42;;
56712;SDS011;42589;45.536;9.032;2023-01-16T20:42:54;33.50;;;21.52;;
56712;SDS011;42589;45.536;9.032;2023-01-16T20:46:14;38.40;;;24.58;;
56712;SDS011;42589;45.536;9.032;2023-01-16T20:49:15;37.05;;;25.58;;
56712;SDS011;42589;45.536;9.032;2023-01-16T20:52:17;43.65;;;27.48;;
56712;SDS011;42589;45.536;9.032;2023-01-16T20:55:18;41.13;;;27.02;;
56712;SDS011;42589;45.536;9.032;2023-01-16T20:58:19;44.78;;;28.73;;
56712;SDS011;42589;45.536;9.032;2023-01-16T21:01:20;47.65;;;30.80;;